PWSweather.com
Personal Weather Stations
Station Observations
DW6827
Bills, Chadron, NE 69337

BillsChadron, NE 69337

Lat: 42.8275, Lon: -103.0094

Elevation: 3367

Station Type: Davis Vantage pro 2

http://billandcorena.com/weatherdisplay.htm

High Low Average
Temperature 77.5°F25.3°C 59.9°F15.5°C 70.2°F21.2°C
Dew Point 64.5°F18.1°C 51.6°F10.9°C 61.1°F16.2°C
Winds 17.0 mph 27.4 kmh Calm Calm 8.0 mph ESE12.9 kmh ESE
Wind Gusts 34.0 mph54.7 kmh -- 15.0 mph24.1 kmh
Humidity 88% 50% 73%
Pressure 29.89 in1012.2 mb 29.67 in1004.7 mb -
Precipitation 0.15 in3.8 mm - -
Hour Temp Dew Point Humidity Winds Wind Gusts Pressure Precip Precip Rate Daily Precip Total
12:00 AM 69.1°F20.6°C 63.0°F17.2°C 81% 16.0 mph E25.7 kmh E 27.0 mph43.5 kmh 29.67 in1004.7 mb 0.00 in0.0 mm 0.00 in0.0 mm 0.00 in0.0 mm
12:10 AM 69.0°F20.6°C 62.9°F17.2°C 81% 14.0 mph E22.5 kmh E 27.0 mph43.5 kmh 29.68 in1005.1 mb 0.00 in0.0 mm 0.00 in0.0 mm 0.00 in0.0 mm
12:20 AM 68.9°F20.5°C 62.8°F17.1°C 81% 13.0 mph E20.9 kmh E 22.0 mph35.4 kmh 29.69 in1005.4 mb 0.00 in0.0 mm 0.00 in0.0 mm 0.00 in0.0 mm
12:30 AM 68.8°F20.4°C 62.7°F17.1°C 81% 11.0 mph E17.7 kmh E 17.0 mph27.4 kmh 29.70 in1005.8 mb 0.00 in0.0 mm 0.00 in0.0 mm 0.00 in0.0 mm
12:40 AM 68.6°F20.3°C 62.5°F16.9°C 81% 10.0 mph E16.1 kmh E 18.0 mph29.0 kmh 29.69 in1005.4 mb 0.00 in0.0 mm 0.00 in0.0 mm 0.00 in0.0 mm
12:50 AM 68.8°F20.4°C 62.4°F16.9°C 80% 13.0 mph ESE20.9 kmh ESE 27.0 mph43.5 kmh 29.69 in1005.4 mb 0.00 in0.0 mm 0.00 in0.0 mm 0.00 in0.0 mm
01:00 AM 68.8°F20.4°C 62.0°F16.7°C 79% 13.0 mph ESE20.9 kmh ESE 22.0 mph35.4 kmh 29.69 in1005.4 mb 0.00 in0.0 mm 0.00 in0.0 mm 0.00 in0.0 mm
01:10 AM 69.0°F20.6°C 61.9°F16.6°C 78% 13.0 mph E20.9 kmh E 24.0 mph38.6 kmh 29.68 in1005.1 mb 0.00 in0.0 mm 0.00 in0.0 mm 0.00 in0.0 mm
01:20 AM 69.1°F20.6°C 61.2°F16.2°C 76% 13.0 mph E20.9 kmh E 22.0 mph35.4 kmh 29.68 in1005.1 mb 0.00 in0.0 mm 0.00 in0.0 mm 0.00 in0.0 mm
01:30 AM 69.0°F20.6°C 61.5°F16.4°C 77% 13.0 mph E20.9 kmh E 29.0 mph46.7 kmh 29.67 in1004.7 mb 0.00 in0.0 mm 0.00 in0.0 mm 0.00 in0.0 mm
01:40 AM 69.1°F20.6°C 61.9°F16.6°C 78% 15.0 mph ESE24.1 kmh ESE 24.0 mph38.6 kmh 29.67 in1004.7 mb 0.00 in0.0 mm 0.00 in0.0 mm 0.00 in0.0 mm
01:50 AM 69.1°F20.6°C 62.3°F16.8°C 79% 13.0 mph E20.9 kmh E 22.0 mph35.4 kmh 29.67 in1004.7 mb 0.00 in0.0 mm 0.00 in0.0 mm 0.00 in0.0 mm
02:00 AM 68.8°F20.4°C 62.7°F17.1°C 81% 14.0 mph E22.5 kmh E 24.0 mph38.6 kmh 29.67 in1004.7 mb 0.00 in0.0 mm 0.00 in0.0 mm 0.00 in0.0 mm
02:10 AM 68.4°F20.2°C 62.7°F17.1°C 82% 14.0 mph ESE22.5 kmh ESE 34.0 mph54.7 kmh 29.67 in1004.7 mb 0.00 in0.0 mm 0.00 in0.0 mm 0.00 in0.0 mm
02:20 AM 68.4°F20.2°C 63.0°F17.2°C 83% 17.0 mph ESE27.4 kmh ESE 31.0 mph49.9 kmh 29.68 in1005.1 mb 0.00 in0.0 mm 0.00 in0.0 mm 0.00 in0.0 mm
02:30 AM 68.4°F20.2°C 63.0°F17.2°C 83% 13.0 mph ESE20.9 kmh ESE 23.0 mph37.0 kmh 29.67 in1004.7 mb 0.00 in0.0 mm 0.00 in0.0 mm 0.00 in0.0 mm
02:40 AM 68.4°F20.2°C 63.0°F17.2°C 83% 12.0 mph ESE19.3 kmh ESE 22.0 mph35.4 kmh 29.68 in1005.1 mb 0.00 in0.0 mm 0.00 in0.0 mm 0.00 in0.0 mm
02:50 AM 68.6°F20.3°C 62.9°F17.2°C 82% 15.0 mph ESE24.1 kmh ESE 23.0 mph37.0 kmh 29.70 in1005.8 mb 0.00 in0.0 mm 0.00 in0.0 mm 0.00 in0.0 mm
03:00 AM 68.6°F20.3°C 62.9°F17.2°C 82% 15.0 mph ESE24.1 kmh ESE 25.0 mph40.2 kmh 29.70 in1005.8 mb 0.00 in0.0 mm 0.00 in0.0 mm 0.00 in0.0 mm
03:10 AM 68.9°F20.5°C 62.8°F17.1°C 81% 14.0 mph ESE22.5 kmh ESE 24.0 mph38.6 kmh 29.69 in1005.4 mb 0.00 in0.0 mm 0.00 in0.0 mm 0.00 in0.0 mm
03:20 AM 68.9°F20.5°C 62.8°F17.1°C 81% 14.0 mph ESE22.5 kmh ESE 22.0 mph35.4 kmh 29.69 in1005.4 mb 0.00 in0.0 mm 0.00 in0.0 mm 0.00 in0.0 mm
03:30 AM 68.9°F20.5°C 62.8°F17.1°C 81% 14.0 mph ESE22.5 kmh ESE 24.0 mph38.6 kmh 29.70 in1005.8 mb 0.00 in0.0 mm 0.00 in0.0 mm 0.00 in0.0 mm
03:40 AM 68.8°F20.4°C 62.7°F17.1°C 81% 12.0 mph ESE19.3 kmh ESE 25.0 mph40.2 kmh 29.70 in1005.8 mb 0.00 in0.0 mm 0.00 in0.0 mm 0.00 in0.0 mm
03:50 AM 68.6°F20.3°C 62.5°F16.9°C 81% 12.0 mph ESE19.3 kmh ESE 23.0 mph37.0 kmh 29.70 in1005.8 mb 0.00 in0.0 mm 0.00 in0.0 mm 0.00 in0.0 mm
04:00 AM 68.4°F20.2°C 62.3°F16.8°C 81% 13.0 mph ESE20.9 kmh ESE 23.0 mph37.0 kmh 29.70 in1005.8 mb 0.00 in0.0 mm 0.00 in0.0 mm 0.00 in0.0 mm
04:10 AM 68.2°F20.1°C 62.5°F16.9°C 82% 13.0 mph E20.9 kmh E 22.0 mph35.4 kmh 29.70 in1005.8 mb 0.00 in0.0 mm 0.00 in0.0 mm 0.00 in0.0 mm
04:20 AM 68.3°F20.2°C 62.6°F17.0°C 82% 11.0 mph E17.7 kmh E 19.0 mph30.6 kmh 29.70 in1005.8 mb 0.00 in0.0 mm 0.00 in0.0 mm 0.00 in0.0 mm
04:30 AM 68.2°F20.1°C 62.5°F16.9°C 82% 10.0 mph E16.1 kmh E 15.0 mph24.1 kmh 29.70 in1005.8 mb 0.00 in0.0 mm 0.00 in0.0 mm 0.00 in0.0 mm
04:40 AM 67.9°F19.9°C 62.2°F16.8°C 82% 12.0 mph ESE19.3 kmh ESE 22.0 mph35.4 kmh 29.70 in1005.8 mb 0.00 in0.0 mm 0.00 in0.0 mm 0.00 in0.0 mm
04:50 AM 67.8°F19.9°C 62.1°F16.7°C 82% 11.0 mph ESE17.7 kmh ESE 20.0 mph32.2 kmh 29.70 in1005.8 mb 0.00 in0.0 mm 0.00 in0.0 mm 0.00 in0.0 mm
05:00 AM 67.6°F19.8°C 61.9°F16.6°C 82% 10.0 mph E16.1 kmh E 18.0 mph29.0 kmh 29.70 in1005.8 mb 0.00 in0.0 mm 0.00 in0.0 mm 0.00 in0.0 mm
05:10 AM 67.6°F19.8°C 61.9°F16.6°C 82% 11.0 mph E17.7 kmh E 19.0 mph30.6 kmh 29.71 in1006.1 mb 0.00 in0.0 mm 0.00 in0.0 mm 0.00 in0.0 mm
05:20 AM 67.9°F19.9°C 61.5°F16.4°C 80% 13.0 mph ESE20.9 kmh ESE 20.0 mph32.2 kmh 29.70 in1005.8 mb 0.00 in0.0 mm 0.00 in0.0 mm 0.00 in0.0 mm
05:30 AM 68.0°F20.0°C 61.6°F16.4°C 80% 10.0 mph ESE16.1 kmh ESE 17.0 mph27.4 kmh 29.71 in1006.1 mb 0.00 in0.0 mm 0.00 in0.0 mm 0.00 in0.0 mm
05:40 AM 67.7°F19.8°C 61.7°F16.5°C 81% 8.0 mph E12.9 kmh E 18.0 mph29.0 kmh 29.72 in1006.4 mb 0.00 in0.0 mm 0.00 in0.0 mm 0.00 in0.0 mm
05:50 AM 67.3°F19.6°C 61.6°F16.4°C 82% 10.0 mph ESE16.1 kmh ESE 23.0 mph37.0 kmh 29.71 in1006.1 mb 0.00 in0.0 mm 0.00 in0.0 mm 0.00 in0.0 mm
06:00 AM 67.2°F19.6°C 61.5°F16.4°C 82% 15.0 mph ESE24.1 kmh ESE 32.0 mph51.5 kmh 29.71 in1006.1 mb 0.00 in0.0 mm 0.00 in0.0 mm 0.00 in0.0 mm
06:10 AM 67.2°F19.6°C 61.2°F16.2°C 81% 11.0 mph ESE17.7 kmh ESE 21.0 mph33.8 kmh 29.71 in1006.1 mb 0.00 in0.0 mm 0.00 in0.0 mm 0.00 in0.0 mm
06:20 AM 67.1°F19.5°C 61.1°F16.2°C 81% 15.0 mph ESE24.1 kmh ESE 24.0 mph38.6 kmh 29.72 in1006.4 mb 0.00 in0.0 mm 0.00 in0.0 mm 0.00 in0.0 mm
06:30 AM 67.1°F19.5°C 61.4°F16.3°C 82% 12.0 mph ESE19.3 kmh ESE 25.0 mph40.2 kmh 29.72 in1006.4 mb 0.00 in0.0 mm 0.00 in0.0 mm 0.00 in0.0 mm
06:40 AM 67.0°F19.4°C 61.3°F16.3°C 82% 17.0 mph ESE27.4 kmh ESE 25.0 mph40.2 kmh 29.72 in1006.4 mb 0.00 in0.0 mm 0.00 in0.0 mm 0.00 in0.0 mm
06:50 AM 67.1°F19.5°C 61.4°F16.3°C 82% 16.0 mph ESE25.7 kmh ESE 24.0 mph38.6 kmh 29.73 in1006.8 mb 0.00 in0.0 mm 0.00 in0.0 mm 0.00 in0.0 mm
07:00 AM 67.1°F19.5°C 61.4°F16.3°C 82% 15.0 mph ESE24.1 kmh ESE 27.0 mph43.5 kmh 29.73 in1006.8 mb 0.00 in0.0 mm 0.00 in0.0 mm 0.00 in0.0 mm
07:10 AM 67.1°F19.5°C 61.4°F16.3°C 82% 12.0 mph ESE19.3 kmh ESE 25.0 mph40.2 kmh 29.74 in1007.1 mb 0.00 in0.0 mm 0.00 in0.0 mm 0.00 in0.0 mm
07:20 AM 67.2°F19.6°C 61.5°F16.4°C 82% 7.0 mph SE11.3 kmh SE 21.0 mph33.8 kmh 29.75 in1007.5 mb 0.00 in0.0 mm 0.00 in0.0 mm 0.00 in0.0 mm
07:30 AM 67.3°F19.6°C 61.6°F16.4°C 82% 2.0 mph SE3.2 kmh SE 6.0 mph9.7 kmh 29.75 in1007.5 mb 0.00 in0.0 mm 0.00 in0.0 mm 0.00 in0.0 mm
07:40 AM 67.7°F19.8°C 61.7°F16.5°C 81% 6.0 mph SE9.7 kmh SE 12.0 mph19.3 kmh 29.75 in1007.5 mb 0.00 in0.0 mm 0.00 in0.0 mm 0.00 in0.0 mm
07:50 AM 68.1°F20.1°C 61.7°F16.5°C 80% 2.0 mph SSE3.2 kmh SSE 5.0 mph8.0 kmh 29.75 in1007.5 mb 0.00 in0.0 mm 0.00 in0.0 mm 0.00 in0.0 mm
08:00 AM 68.0°F20.0°C 61.2°F16.2°C 79% 2.0 mph WSW3.2 kmh WSW 3.0 mph4.8 kmh 29.75 in1007.5 mb 0.00 in0.0 mm 0.00 in0.0 mm 0.00 in0.0 mm
08:10 AM 67.8°F19.9°C 61.4°F16.3°C 80% 3.0 mph S4.8 kmh S 6.0 mph9.7 kmh 29.76 in1007.8 mb 0.00 in0.0 mm 0.00 in0.0 mm 0.00 in0.0 mm
08:20 AM 67.7°F19.8°C 61.3°F16.3°C 80% 6.0 mph SE9.7 kmh SE 13.0 mph20.9 kmh 29.76 in1007.8 mb 0.00 in0.0 mm 0.00 in0.0 mm 0.00 in0.0 mm
08:30 AM 67.9°F19.9°C 61.5°F16.4°C 80% 5.0 mph SE8.0 kmh SE 9.0 mph14.5 kmh 29.76 in1007.8 mb 0.00 in0.0 mm 0.00 in0.0 mm 0.00 in0.0 mm
08:40 AM 68.2°F20.1°C 61.8°F16.6°C 80% 7.0 mph S11.3 kmh S 12.0 mph19.3 kmh 29.77 in1008.1 mb 0.00 in0.0 mm 0.00 in0.0 mm 0.00 in0.0 mm
08:50 AM 68.6°F20.3°C 62.2°F16.8°C 80% 3.0 mph SE4.8 kmh SE 5.0 mph8.0 kmh 29.77 in1008.1 mb 0.00 in0.0 mm 0.00 in0.0 mm 0.00 in0.0 mm
09:00 AM 69.0°F20.6°C 61.9°F16.6°C 78% 2.0 mph S3.2 kmh S 6.0 mph9.7 kmh 29.77 in1008.1 mb 0.00 in0.0 mm 0.00 in0.0 mm 0.00 in0.0 mm
09:10 AM 69.6°F20.9°C 62.8°F17.1°C 79% Calm Calm -- 29.77 in1008.1 mb 0.00 in0.0 mm 0.00 in0.0 mm 0.00 in0.0 mm
09:20 AM 70.1°F21.2°C 62.6°F17.0°C 77% 4.0 mph ESE6.4 kmh ESE 8.0 mph12.9 kmh 29.78 in1008.5 mb 0.00 in0.0 mm 0.00 in0.0 mm 0.00 in0.0 mm
09:30 AM 70.2°F21.2°C 62.3°F16.8°C 76% 3.0 mph SE4.8 kmh SE 7.0 mph11.3 kmh 29.78 in1008.5 mb 0.00 in0.0 mm 0.00 in0.0 mm 0.00 in0.0 mm
09:40 AM 70.4°F21.3°C 62.8°F17.1°C 77% 5.0 mph SSE8.0 kmh SSE 11.0 mph17.7 kmh 29.79 in1008.8 mb 0.00 in0.0 mm 0.00 in0.0 mm 0.00 in0.0 mm
09:50 AM 70.7°F21.5°C 63.1°F17.3°C 77% 4.0 mph SSE6.4 kmh SSE 8.0 mph12.9 kmh 29.80 in1009.1 mb 0.00 in0.0 mm 0.00 in0.0 mm 0.00 in0.0 mm
10:00 AM 71.0°F21.7°C 63.4°F17.4°C 77% 3.0 mph SSE4.8 kmh SSE 5.0 mph8.0 kmh 29.80 in1009.1 mb 0.00 in0.0 mm 0.00 in0.0 mm 0.00 in0.0 mm
10:10 AM 70.8°F21.6°C 62.9°F17.2°C 76% 4.0 mph SE6.4 kmh SE 8.0 mph12.9 kmh 29.81 in1009.5 mb 0.00 in0.0 mm 0.00 in0.0 mm 0.00 in0.0 mm
10:20 AM 70.6°F21.4°C 62.7°F17.1°C 76% 6.0 mph SE9.7 kmh SE 9.0 mph14.5 kmh 29.81 in1009.5 mb 0.00 in0.0 mm 0.00 in0.0 mm 0.00 in0.0 mm
10:30 AM 70.8°F21.6°C 62.5°F16.9°C 75% 6.0 mph SE9.7 kmh SE 10.0 mph16.1 kmh 29.81 in1009.5 mb 0.00 in0.0 mm 0.00 in0.0 mm 0.00 in0.0 mm
10:40 AM 71.3°F21.8°C 63.3°F17.4°C 76% 6.0 mph ESE9.7 kmh ESE 10.0 mph16.1 kmh 29.82 in1009.8 mb 0.00 in0.0 mm 0.00 in0.0 mm 0.00 in0.0 mm
10:50 AM 71.5°F21.9°C 62.8°F17.1°C 74% 4.0 mph SE6.4 kmh SE 9.0 mph14.5 kmh 29.81 in1009.5 mb 0.00 in0.0 mm 0.00 in0.0 mm 0.00 in0.0 mm
11:00 AM 71.6°F22.0°C 62.5°F16.9°C 73% 8.0 mph SE12.9 kmh SE 13.0 mph20.9 kmh 29.82 in1009.8 mb 0.00 in0.0 mm 0.00 in0.0 mm 0.00 in0.0 mm
11:10 AM 71.6°F22.0°C 62.5°F16.9°C 73% 8.0 mph SE12.9 kmh SE 12.0 mph19.3 kmh 29.81 in1009.5 mb 0.00 in0.0 mm 0.00 in0.0 mm 0.00 in0.0 mm
11:20 AM 72.1°F22.3°C 62.6°F17.0°C 72% 7.0 mph ESE11.3 kmh ESE 11.0 mph17.7 kmh 29.82 in1009.8 mb 0.00 in0.0 mm 0.00 in0.0 mm 0.00 in0.0 mm
11:30 AM 72.3°F22.4°C 62.8°F17.1°C 72% 6.0 mph ESE9.7 kmh ESE 10.0 mph16.1 kmh 29.81 in1009.5 mb 0.00 in0.0 mm 0.00 in0.0 mm 0.00 in0.0 mm
11:40 AM 72.7°F22.6°C 63.1°F17.3°C 72% 6.0 mph E9.7 kmh E 11.0 mph17.7 kmh 29.81 in1009.5 mb 0.00 in0.0 mm 0.00 in0.0 mm 0.00 in0.0 mm
11:50 AM 73.3°F22.9°C 62.9°F17.2°C 70% 5.0 mph ESE8.0 kmh ESE 8.0 mph12.9 kmh 29.80 in1009.1 mb 0.00 in0.0 mm 0.00 in0.0 mm 0.00 in0.0 mm
12:00 PM 73.5°F23.1°C 62.3°F16.8°C 68% 8.0 mph E12.9 kmh E 14.0 mph22.5 kmh 29.80 in1009.1 mb 0.00 in0.0 mm 0.00 in0.0 mm 0.00 in0.0 mm
12:10 PM 73.8°F23.2°C 62.6°F17.0°C 68% 7.0 mph SE11.3 kmh SE 12.0 mph19.3 kmh 29.80 in1009.1 mb 0.00 in0.0 mm 0.00 in0.0 mm 0.00 in0.0 mm
12:20 PM 74.1°F23.4°C 63.3°F17.4°C 69% 7.0 mph ESE11.3 kmh ESE 11.0 mph17.7 kmh 29.80 in1009.1 mb 0.00 in0.0 mm 0.00 in0.0 mm 0.00 in0.0 mm
12:30 PM 74.4°F23.6°C 63.1°F17.3°C 68% 10.0 mph SE16.1 kmh SE 16.0 mph25.7 kmh 29.80 in1009.1 mb 0.00 in0.0 mm 0.00 in0.0 mm 0.00 in0.0 mm
12:40 PM 74.3°F23.5°C 62.6°F17.0°C 67% 11.0 mph SE17.7 kmh SE 15.0 mph24.1 kmh 29.80 in1009.1 mb 0.00 in0.0 mm 0.00 in0.0 mm 0.00 in0.0 mm
12:50 PM 74.7°F23.7°C 63.9°F17.7°C 69% 8.0 mph ESE12.9 kmh ESE 12.0 mph19.3 kmh 29.80 in1009.1 mb 0.00 in0.0 mm 0.00 in0.0 mm 0.00 in0.0 mm
01:00 PM 74.9°F23.8°C 63.2°F17.3°C 67% 7.0 mph E11.3 kmh E 10.0 mph16.1 kmh 29.80 in1009.1 mb 0.00 in0.0 mm 0.00 in0.0 mm 0.00 in0.0 mm
01:10 PM 75.0°F23.9°C 63.3°F17.4°C 67% 10.0 mph SE16.1 kmh SE 16.0 mph25.7 kmh 29.80 in1009.1 mb 0.00 in0.0 mm 0.00 in0.0 mm 0.00 in0.0 mm
01:20 PM 74.4°F23.6°C 62.7°F17.1°C 67% 11.0 mph ESE17.7 kmh ESE 19.0 mph30.6 kmh 29.80 in1009.1 mb 0.00 in0.0 mm 0.00 in0.0 mm 0.00 in0.0 mm
01:30 PM 74.2°F23.4°C 63.0°F17.2°C 68% 10.0 mph SE16.1 kmh SE 16.0 mph25.7 kmh 29.80 in1009.1 mb 0.00 in0.0 mm 0.00 in0.0 mm 0.00 in0.0 mm
01:40 PM 74.2°F23.4°C 63.0°F17.2°C 68% 11.0 mph ESE17.7 kmh ESE 17.0 mph27.4 kmh 29.80 in1009.1 mb 0.00 in0.0 mm 0.00 in0.0 mm 0.00 in0.0 mm
01:50 PM 74.4°F23.6°C 62.7°F17.1°C 67% 9.0 mph SE14.5 kmh SE 13.0 mph20.9 kmh 29.80 in1009.1 mb 0.00 in0.0 mm 0.00 in0.0 mm 0.00 in0.0 mm
02:00 PM 74.5°F23.6°C 63.2°F17.3°C 68% 9.0 mph SE14.5 kmh SE 16.0 mph25.7 kmh 29.80 in1009.1 mb 0.00 in0.0 mm 0.00 in0.0 mm 0.00 in0.0 mm
02:10 PM 74.5°F23.6°C 63.2°F17.3°C 68% 8.0 mph SE12.9 kmh SE 13.0 mph20.9 kmh 29.80 in1009.1 mb 0.00 in0.0 mm 0.00 in0.0 mm 0.00 in0.0 mm
02:20 PM 74.7°F23.7°C 63.4°F17.4°C 68% 13.0 mph SE20.9 kmh SE 18.0 mph29.0 kmh 29.80 in1009.1 mb 0.00 in0.0 mm 0.00 in0.0 mm 0.00 in0.0 mm
02:30 PM 74.7°F23.7°C 63.4°F17.4°C 68% 8.0 mph ESE12.9 kmh ESE 13.0 mph20.9 kmh 29.80 in1009.1 mb 0.00 in0.0 mm 0.00 in0.0 mm 0.00 in0.0 mm
02:40 PM 74.7°F23.7°C 63.0°F17.2°C 67% 8.0 mph SE12.9 kmh SE 14.0 mph22.5 kmh 29.80 in1009.1 mb 0.00 in0.0 mm 0.00 in0.0 mm 0.00 in0.0 mm
02:50 PM 75.0°F23.9°C 63.3°F17.4°C 67% 9.0 mph SE14.5 kmh SE 13.0 mph20.9 kmh 29.79 in1008.8 mb 0.00 in0.0 mm 0.00 in0.0 mm 0.00 in0.0 mm
03:00 PM 75.2°F24.0°C 63.9°F17.7°C 68% 7.0 mph ESE11.3 kmh ESE 10.0 mph16.1 kmh 29.79 in1008.8 mb 0.00 in0.0 mm 0.00 in0.0 mm 0.00 in0.0 mm
03:10 PM 75.2°F24.0°C 63.5°F17.5°C 67% 10.0 mph ESE16.1 kmh ESE 15.0 mph24.1 kmh 29.79 in1008.8 mb 0.00 in0.0 mm 0.00 in0.0 mm 0.00 in0.0 mm
03:20 PM 75.8°F24.3°C 63.2°F17.3°C 65% 8.0 mph ESE12.9 kmh ESE 15.0 mph24.1 kmh 29.79 in1008.8 mb 0.00 in0.0 mm 0.00 in0.0 mm 0.00 in0.0 mm
03:30 PM 75.8°F24.3°C 63.2°F17.3°C 65% 11.0 mph ESE17.7 kmh ESE 18.0 mph29.0 kmh 29.79 in1008.8 mb 0.00 in0.0 mm 0.00 in0.0 mm 0.00 in0.0 mm
03:40 PM 76.3°F24.6°C 64.5°F18.1°C 67% 5.0 mph SE8.0 kmh SE 9.0 mph14.5 kmh 29.79 in1008.8 mb 0.00 in0.0 mm 0.00 in0.0 mm 0.00 in0.0 mm
03:50 PM 76.2°F24.6°C 62.7°F17.1°C 63% 10.0 mph ESE16.1 kmh ESE 15.0 mph24.1 kmh 29.79 in1008.8 mb 0.00 in0.0 mm 0.00 in0.0 mm 0.00 in0.0 mm
04:00 PM 76.2°F24.6°C 62.7°F17.1°C 63% 12.0 mph ESE19.3 kmh ESE 21.0 mph33.8 kmh 29.78 in1008.5 mb 0.00 in0.0 mm 0.00 in0.0 mm 0.00 in0.0 mm
04:10 PM 76.5°F24.7°C 63.4°F17.4°C 64% 11.0 mph SE17.7 kmh SE 18.0 mph29.0 kmh 29.78 in1008.5 mb 0.00 in0.0 mm 0.00 in0.0 mm 0.00 in0.0 mm
04:20 PM 76.9°F24.9°C 62.9°F17.2°C 62% 13.0 mph ESE20.9 kmh ESE 19.0 mph30.6 kmh 29.78 in1008.5 mb 0.00 in0.0 mm 0.00 in0.0 mm 0.00 in0.0 mm
04:30 PM 77.3°F25.2°C 63.7°F17.6°C 63% 10.0 mph E16.1 kmh E 15.0 mph24.1 kmh 29.78 in1008.5 mb 0.00 in0.0 mm 0.00 in0.0 mm 0.00 in0.0 mm
04:40 PM 77.2°F25.1°C 63.2°F17.3°C 62% 11.0 mph ESE17.7 kmh ESE 15.0 mph24.1 kmh 29.77 in1008.1 mb 0.00 in0.0 mm 0.00 in0.0 mm 0.00 in0.0 mm
04:50 PM 77.5°F25.3°C 63.9°F17.7°C 63% 10.0 mph E16.1 kmh E 19.0 mph30.6 kmh 29.77 in1008.1 mb 0.00 in0.0 mm 0.00 in0.0 mm 0.00 in0.0 mm
05:00 PM 76.6°F24.8°C 63.1°F17.3°C 63% 10.0 mph E16.1 kmh E 15.0 mph24.1 kmh 29.77 in1008.1 mb 0.00 in0.0 mm 0.00 in0.0 mm 0.00 in0.0 mm
05:10 PM 75.6°F24.2°C 63.0°F17.2°C 65% 7.0 mph E11.3 kmh E 14.0 mph22.5 kmh 29.77 in1008.1 mb 0.00 in0.0 mm 0.00 in0.0 mm 0.00 in0.0 mm
05:20 PM 75.5°F24.2°C 62.9°F17.2°C 65% 13.0 mph ESE20.9 kmh ESE 20.0 mph32.2 kmh 29.77 in1008.1 mb 0.00 in0.0 mm 0.00 in0.0 mm 0.00 in0.0 mm
05:30 PM 75.1°F23.9°C 63.4°F17.4°C 67% 9.0 mph ESE14.5 kmh ESE 17.0 mph27.4 kmh 29.77 in1008.1 mb 0.00 in0.0 mm 0.00 in0.0 mm 0.00 in0.0 mm
05:40 PM 74.9°F23.8°C 62.8°F17.1°C 66% 9.0 mph ESE14.5 kmh ESE 15.0 mph24.1 kmh 29.77 in1008.1 mb 0.00 in0.0 mm 0.00 in0.0 mm 0.00 in0.0 mm
05:50 PM 75.2°F24.0°C 63.1°F17.3°C 66% 8.0 mph SE12.9 kmh SE 14.0 mph22.5 kmh 29.77 in1008.1 mb 0.00 in0.0 mm 0.00 in0.0 mm 0.00 in0.0 mm
06:00 PM 74.7°F23.7°C 63.0°F17.2°C 67% 6.0 mph ESE9.7 kmh ESE 11.0 mph17.7 kmh 29.78 in1008.5 mb 0.00 in0.0 mm 0.00 in0.0 mm 0.00 in0.0 mm
06:10 PM 74.4°F23.6°C 63.1°F17.3°C 68% 5.0 mph ESE8.0 kmh ESE 9.0 mph14.5 kmh 29.78 in1008.5 mb 0.00 in0.0 mm 0.00 in0.0 mm 0.00 in0.0 mm
06:20 PM 74.3°F23.5°C 63.1°F17.3°C 68% 11.0 mph SE17.7 kmh SE 22.0 mph35.4 kmh 29.79 in1008.8 mb 0.00 in0.0 mm 0.00 in0.0 mm 0.00 in0.0 mm
06:30 PM 74.2°F23.4°C 63.0°F17.2°C 68% 6.0 mph SE9.7 kmh SE 11.0 mph17.7 kmh 29.78 in1008.5 mb 0.00 in0.0 mm 0.00 in0.0 mm 0.00 in0.0 mm
06:40 PM 74.2°F23.4°C 63.0°F17.2°C 68% 5.0 mph E8.0 kmh E 7.0 mph11.3 kmh 29.78 in1008.5 mb 0.00 in0.0 mm 0.00 in0.0 mm 0.00 in0.0 mm
06:50 PM 74.2°F23.4°C 62.5°F16.9°C 67% 8.0 mph E12.9 kmh E 12.0 mph19.3 kmh 29.79 in1008.8 mb 0.00 in0.0 mm 0.00 in0.0 mm 0.00 in0.0 mm
07:00 PM 74.1°F23.4°C 62.4°F16.9°C 67% 8.0 mph ESE12.9 kmh ESE 13.0 mph20.9 kmh 29.80 in1009.1 mb 0.00 in0.0 mm 0.00 in0.0 mm 0.00 in0.0 mm
07:10 PM 73.8°F23.2°C 62.6°F17.0°C 68% 7.0 mph ESE11.3 kmh ESE 11.0 mph17.7 kmh 29.80 in1009.1 mb 0.00 in0.0 mm 0.00 in0.0 mm 0.00 in0.0 mm
07:20 PM 73.7°F23.2°C 62.9°F17.2°C 69% 5.0 mph SE8.0 kmh SE 8.0 mph12.9 kmh 29.81 in1009.5 mb 0.00 in0.0 mm 0.00 in0.0 mm 0.00 in0.0 mm
07:30 PM 73.5°F23.1°C 63.1°F17.3°C 70% 4.0 mph SSE6.4 kmh SSE 7.0 mph11.3 kmh 29.82 in1009.8 mb 0.00 in0.0 mm 0.00 in0.0 mm 0.00 in0.0 mm
07:40 PM 73.3°F22.9°C 62.9°F17.2°C 70% 5.0 mph SE8.0 kmh SE 7.0 mph11.3 kmh 29.82 in1009.8 mb 0.00 in0.0 mm 0.00 in0.0 mm 0.00 in0.0 mm
07:50 PM 73.4°F23.0°C 63.0°F17.2°C 70% 5.0 mph SE8.0 kmh SE 7.0 mph11.3 kmh 29.82 in1009.8 mb 0.00 in0.0 mm 0.00 in0.0 mm 0.00 in0.0 mm
08:00 PM 73.1°F22.8°C 63.1°F17.3°C 71% 5.0 mph ESE8.0 kmh ESE 9.0 mph14.5 kmh 29.81 in1009.5 mb 0.00 in0.0 mm 0.00 in0.0 mm 0.00 in0.0 mm
08:10 PM 72.7°F22.6°C 63.1°F17.3°C 72% 4.0 mph ESE6.4 kmh ESE 10.0 mph16.1 kmh 29.81 in1009.5 mb 0.00 in0.0 mm 0.00 in0.0 mm 0.00 in0.0 mm
08:20 PM 72.6°F22.6°C 63.1°F17.3°C 72% 5.0 mph ESE8.0 kmh ESE 9.0 mph14.5 kmh 29.82 in1009.8 mb 0.00 in0.0 mm 0.00 in0.0 mm 0.00 in0.0 mm
08:30 PM 72.2°F22.3°C 56.6°F13.7°C 58% 9.0 mph SSE14.5 kmh SSE 14.0 mph22.5 kmh 29.82 in1009.8 mb 0.00 in0.0 mm 0.00 in0.0 mm 0.00 in0.0 mm
08:40 PM 71.2°F21.8°C 51.6°F10.9°C 50% 6.0 mph S9.7 kmh S 9.0 mph14.5 kmh 29.82 in1009.8 mb 0.00 in0.0 mm 0.00 in0.0 mm 0.00 in0.0 mm
08:50 PM 69.8°F21.0°C 53.9°F12.2°C 57% 2.0 mph SSE3.2 kmh SSE 4.0 mph6.4 kmh 29.82 in1009.8 mb 0.00 in0.0 mm 0.00 in0.0 mm 0.00 in0.0 mm
09:00 PM 67.9°F19.9°C 54.4°F12.4°C 62% Calm Calm -- 29.79 in1008.8 mb 0.00 in0.0 mm 0.00 in0.0 mm 0.00 in0.0 mm
09:10 PM 67.1°F19.5°C 53.6°F12.0°C 62% Calm Calm -- 29.78 in1008.5 mb 0.00 in0.0 mm 0.00 in0.0 mm 0.00 in0.0 mm
09:20 PM 66.8°F19.3°C 52.9°F11.6°C 61% 3.0 mph E4.8 kmh E 5.0 mph8.0 kmh 29.78 in1008.5 mb 0.00 in0.0 mm 0.00 in0.0 mm 0.00 in0.0 mm
09:30 PM 67.9°F19.9°C 52.6°F11.4°C 58% 3.0 mph ENE4.8 kmh ENE 7.0 mph11.3 kmh 29.79 in1008.8 mb 0.00 in0.0 mm 0.00 in0.0 mm 0.00 in0.0 mm
09:40 PM 68.1°F20.1°C 52.3°F11.3°C 57% 6.0 mph ENE9.7 kmh ENE 8.0 mph12.9 kmh 29.80 in1009.1 mb 0.00 in0.0 mm 0.00 in0.0 mm 0.00 in0.0 mm
09:50 PM 67.5°F19.7°C 53.1°F11.7°C 60% 8.0 mph E12.9 kmh E 16.0 mph25.7 kmh 29.80 in1009.1 mb 0.00 in0.0 mm 0.00 in0.0 mm 0.00 in0.0 mm
10:00 PM 66.3°F19.1°C 53.8°F12.1°C 64% 8.0 mph E12.9 kmh E 16.0 mph25.7 kmh 29.80 in1009.1 mb 0.00 in0.0 mm 0.00 in0.0 mm 0.00 in0.0 mm
10:10 PM 66.9°F19.4°C 53.5°F11.9°C 62% 10.0 mph E16.1 kmh E 17.0 mph27.4 kmh 29.80 in1009.1 mb 0.00 in0.0 mm 0.00 in0.0 mm 0.00 in0.0 mm
10:20 PM 67.2°F19.6°C 53.7°F12.1°C 62% 10.0 mph E16.1 kmh E 20.0 mph32.2 kmh 29.82 in1009.8 mb 0.00 in0.0 mm 0.00 in0.0 mm 0.00 in0.0 mm
10:30 PM 65.4°F18.6°C 54.2°F12.3°C 67% 13.0 mph E20.9 kmh E 24.0 mph38.6 kmh 29.83 in1010.2 mb 0.00 in0.0 mm 0.00 in0.0 mm 0.00 in0.0 mm
10:40 PM 64.3°F17.9°C 54.7°F12.6°C 71% 12.0 mph E19.3 kmh E 19.0 mph30.6 kmh 29.83 in1010.2 mb 0.00 in0.0 mm 0.00 in0.0 mm 0.00 in0.0 mm
10:50 PM 65.5°F18.6°C 55.1°F12.8°C 69% 8.0 mph ESE12.9 kmh ESE 17.0 mph27.4 kmh 29.85 in1010.8 mb 0.00 in0.0 mm 0.00 in0.0 mm 0.00 in0.0 mm
11:00 PM 64.4°F18.0°C 55.6°F13.1°C 73% 7.0 mph E11.3 kmh E 13.0 mph20.9 kmh 29.84 in1010.5 mb 0.02 in0.5 mm 0.02 in0.5 mm 0.02 in0.5 mm
11:10 PM 62.8°F17.1°C 56.2°F13.4°C 79% 7.0 mph E11.3 kmh E 11.0 mph17.7 kmh 29.85 in1010.8 mb 0.03 in0.8 mm 0.06 in1.5 mm 0.03 in0.8 mm
11:20 PM 62.8°F17.1°C 55.5°F13.1°C 77% 2.0 mph NE3.2 kmh NE 5.0 mph8.0 kmh 29.88 in1011.9 mb 0.05 in1.3 mm 0.12 in3.0 mm 0.05 in1.3 mm
11:30 PM 60.9°F16.1°C 56.0°F13.3°C 84% 8.0 mph S12.9 kmh S 14.0 mph22.5 kmh 29.89 in1012.2 mb 0.08 in2.0 mm 0.18 in4.6 mm 0.08 in2.0 mm
11:40 PM 61.3°F16.3°C 55.4°F13.0°C 81% 3.0 mph S4.8 kmh S 6.0 mph9.7 kmh 29.87 in1011.5 mb 0.11 in2.8 mm 0.18 in4.6 mm 0.11 in2.8 mm
11:50 PM 60.4°F15.8°C 56.2°F13.4°C 86% 12.0 mph SW19.3 kmh SW 15.0 mph24.1 kmh 29.85 in1010.8 mb 0.15 in3.8 mm 0.24 in6.1 mm 0.15 in3.8 mm